createdAt,value
2019-05-07T00:02:22.584Z,1.80
2019-05-07T00:04:52.254Z,1.50
2019-05-07T00:07:22.378Z,1.90
2019-05-07T00:09:52.530Z,1.30
2019-05-07T00:12:23.037Z,1.70
2019-05-07T00:14:58.985Z,1.75
2019-05-07T00:17:22.888Z,2.05
2019-05-07T00:19:52.574Z,1.82
2019-05-07T00:22:22.693Z,2.00
2019-05-07T00:24:52.142Z,1.95
2019-05-07T00:27:22.592Z,1.90
2019-05-07T00:29:52.081Z,2.08
2019-05-07T00:32:22.144Z,1.50
2019-05-07T00:34:55.605Z,1.75
2019-05-07T00:37:25.930Z,2.45
2019-05-07T00:39:56.304Z,2.47
2019-05-07T00:42:26.615Z,1.60
2019-05-07T00:45:17.802Z,2.10
2019-05-07T00:47:42.732Z,1.80
2019-05-07T00:50:13.036Z,2.10
2019-05-07T00:52:42.957Z,1.70
2019-05-07T00:55:12.069Z,2.00
2019-05-07T00:57:42.761Z,2.10
2019-05-07T01:00:13.116Z,2.08
2019-05-07T01:02:43.088Z,2.15
2019-05-07T01:05:12.378Z,2.35
2019-05-07T01:07:41.989Z,2.27
2019-05-07T01:10:12.745Z,2.15
2019-05-07T01:12:42.288Z,2.33
2019-05-07T01:15:12.887Z,2.17
2019-05-07T01:17:42.605Z,2.30
2019-05-07T01:20:12.555Z,1.98
2019-05-07T01:22:42.437Z,2.40
2019-05-07T01:25:12.895Z,2.00
2019-05-07T01:27:42.706Z,2.27
2019-05-07T01:30:12.926Z,1.75
2019-05-07T01:32:53.251Z,1.70
2019-05-07T01:35:26.714Z,2.30
2019-05-07T01:37:55.395Z,1.80
2019-05-07T01:40:24.087Z,2.00
2019-05-07T01:42:53.064Z,2.20
2019-05-07T01:45:22.009Z,1.90
2019-05-07T01:47:53.115Z,1.82
2019-05-07T01:50:22.729Z,2.33
2019-05-07T01:52:52.232Z,1.92
2019-05-07T01:55:22.574Z,2.22
2019-05-07T01:57:52.306Z,2.00
2019-05-07T02:00:22.400Z,1.90
2019-05-07T02:02:55.674Z,1.87
2019-05-07T02:05:42.488Z,1.60
2019-05-07T02:08:15.786Z,1.72
2019-05-07T02:10:46.300Z,1.80
2019-05-07T02:13:15.010Z,1.95
2019-05-07T02:15:57.324Z,1.92
2019-05-07T02:18:14.037Z,1.87
2019-05-07T02:20:42.770Z,1.82
2019-05-07T02:23:12.793Z,2.25
2019-05-07T02:25:42.008Z,2.12
2019-05-07T02:28:12.709Z,1.82
2019-05-07T02:30:44.256Z,2.42
2019-05-07T02:33:13.766Z,1.67
2019-05-07T02:35:43.846Z,1.90
2019-05-07T02:38:14.166Z,2.37
2019-05-07T02:40:47.531Z,2.95
2019-05-07T02:43:16.221Z,2.22
2019-05-07T02:46:17.378Z,2.65
2019-05-07T02:48:33.831Z,2.33
2019-05-07T02:51:06.893Z,2.10
2019-05-07T02:53:46.293Z,2.20
2019-05-07T02:56:15.019Z,2.30
2019-05-07T02:58:43.698Z,1.90
2019-05-07T03:01:13.775Z,1.95
2019-05-07T03:03:44.925Z,1.77
2019-05-07T03:06:13.690Z,2.20
2019-05-07T03:08:43.918Z,2.15
2019-05-07T03:11:14.036Z,2.33
2019-05-07T03:13:43.585Z,2.33
2019-05-07T03:16:13.073Z,1.90
2019-05-07T03:18:43.852Z,3.05
2019-05-07T03:21:19.062Z,2.20
2019-05-07T03:23:49.428Z,2.02
2019-05-07T03:26:22.867Z,2.00
2019-05-07T03:28:54.246Z,1.95
2019-05-07T03:31:46.025Z,2.20
2019-05-07T03:34:28.327Z,1.87
2019-05-07T03:36:58.620Z,1.60
2019-05-07T03:39:27.315Z,2.00
2019-05-07T03:41:56.041Z,2.30
2019-05-07T03:44:33.826Z,1.40
2019-05-07T03:47:23.851Z,2.05
2019-05-07T03:52:24.140Z,2.37
2019-05-07T03:54:54.021Z,2.30
2019-05-07T03:57:23.725Z,2.85
2019-05-07T03:59:53.297Z,2.45
2019-05-07T04:02:23.760Z,2.02
2019-05-07T04:04:52.962Z,2.58
2019-05-07T04:07:23.251Z,2.27
2019-05-07T04:09:53.485Z,1.57
2019-05-07T04:12:23.905Z,2.05
2019-05-07T04:14:53.627Z,1.60
2019-05-07T04:17:26.733Z,1.80
2019-05-07T04:19:53.364Z,1.90
2019-05-07T04:22:26.467Z,1.80
2019-05-07T04:24:54.419Z,2.15
2019-05-07T04:27:24.733Z,1.67
2019-05-07T04:29:53.459Z,2.37
2019-05-07T04:32:23.823Z,1.70
2019-05-07T04:35:04.073Z,2.30
2019-05-07T04:37:33.342Z,1.80
2019-05-07T04:40:03.304Z,1.77
2019-05-07T04:42:33.471Z,1.92
2019-05-07T04:45:04.312Z,2.08
2019-05-07T04:47:42.457Z,2.30
2019-05-07T04:50:05.130Z,2.50
2019-05-07T04:52:37.784Z,2.50
2019-05-07T04:55:06.955Z,2.22
2019-05-07T04:57:35.647Z,2.37
2019-05-07T05:00:05.273Z,2.20
2019-05-07T05:02:35.592Z,2.52
2019-05-07T05:05:04.903Z,2.02
2019-05-07T05:07:33.661Z,2.40
2019-05-07T05:10:02.888Z,2.65
2019-05-07T05:12:32.635Z,2.90
2019-05-07T05:15:02.181Z,2.37
2019-05-07T05:17:32.019Z,2.95
2019-05-07T05:20:03.612Z,2.10
2019-05-07T05:22:32.991Z,2.58
2019-05-07T05:25:12.422Z,2.12
2019-05-07T05:27:42.977Z,2.15
2019-05-07T05:30:15.771Z,2.22
2019-05-07T05:32:44.458Z,2.12
2019-05-07T05:35:13.169Z,2.45
2019-05-07T05:37:42.934Z,2.55
2019-05-07T05:40:12.304Z,2.70
2019-05-07T05:42:45.308Z,2.52
2019-05-07T05:45:33.472Z,2.05
2019-05-07T05:48:07.460Z,2.30
2019-05-07T05:50:34.308Z,2.62
2019-05-07T05:53:21.865Z,2.35
2019-05-07T05:55:52.810Z,1.85
2019-05-07T05:58:39.532Z,2.40
2019-05-07T06:01:22.627Z,2.40
2019-05-07T06:03:56.052Z,2.30
2019-05-07T06:06:34.879Z,2.30
2019-05-07T06:09:23.307Z,2.52
2019-05-07T06:12:10.009Z,2.20
2019-05-07T06:14:49.641Z,2.27
2019-05-07T06:17:28.765Z,2.20
2019-05-07T06:20:12.183Z,2.75
2019-05-07T06:22:58.988Z,2.50
2019-05-07T06:25:27.709Z,3.12
2019-05-07T06:27:56.388Z,2.20
2019-05-07T06:30:25.081Z,3.17
2019-05-07T06:32:53.807Z,2.08
2019-05-07T06:35:22.990Z,2.30
2019-05-07T06:37:52.229Z,2.58
2019-05-07T06:40:32.276Z,2.67
2019-05-07T06:43:21.840Z,2.90
2019-05-07T06:45:55.523Z,2.70
2019-05-07T06:48:37.648Z,3.00
2019-05-07T06:50:57.798Z,2.12
2019-05-07T06:53:28.618Z,2.65
2019-05-07T06:55:58.554Z,2.37
2019-05-07T06:58:28.882Z,2.45
2019-05-07T07:01:15.915Z,2.45
2019-05-07T07:04:02.644Z,2.60
2019-05-07T07:06:33.130Z,2.50
2019-05-07T07:09:06.299Z,2.30
2019-05-07T07:11:39.085Z,2.92
2019-05-07T07:14:07.767Z,2.83
2019-05-07T07:16:36.458Z,2.50
2019-05-07T07:19:05.186Z,2.20
2019-05-07T07:21:33.866Z,2.30
2019-05-07T07:24:03.117Z,2.77
2019-05-07T07:26:33.663Z,2.20
2019-05-07T07:29:02.366Z,2.50
2019-05-07T07:31:44.637Z,3.05
2019-05-07T07:34:13.339Z,2.40
2019-05-07T07:36:43.671Z,2.50
2019-05-07T07:39:12.822Z,2.83
2019-05-07T07:41:45.786Z,2.52
2019-05-07T07:44:14.216Z,2.40
2019-05-07T07:46:42.716Z,2.60
2019-05-07T07:49:14.785Z,2.30
2019-05-07T07:51:44.693Z,2.40
2019-05-07T07:54:13.099Z,2.13
2019-05-07T07:56:50.239Z,3.10
2019-05-07T07:59:24.055Z,2.70
2019-05-07T08:01:54.139Z,2.73
2019-05-07T08:04:22.953Z,2.60
2019-05-07T08:07:03.488Z,2.77
2019-05-07T08:09:33.303Z,2.23
2019-05-07T08:12:02.648Z,2.00
2019-05-07T08:14:32.455Z,1.70
2019-05-07T08:17:02.697Z,2.17
2019-05-07T08:19:32.818Z,2.23
2019-05-07T08:22:02.858Z,1.63
2019-05-07T08:24:32.215Z,2.40
2019-05-07T08:27:02.422Z,2.80
2019-05-07T08:29:32.634Z,2.80
2019-05-07T08:32:12.631Z,2.57
2019-05-07T08:34:48.974Z,2.57
2019-05-07T08:37:17.677Z,2.30
2019-05-07T08:39:46.263Z,2.63
2019-05-07T08:42:14.739Z,2.63
2019-05-07T08:44:44.815Z,2.40
2019-05-07T08:47:14.897Z,2.17
2019-05-07T08:49:43.742Z,3.40
2019-05-07T08:52:12.175Z,3.20
2019-05-07T08:54:42.662Z,3.90
2019-05-07T08:57:12.180Z,2.60
2019-05-07T08:59:42.447Z,2.80
2019-05-07T09:02:12.632Z,2.20
2019-05-07T09:04:41.750Z,2.60
2019-05-07T09:07:10.371Z,2.93
2019-05-07T09:09:42.463Z,2.90
2019-05-07T09:12:12.403Z,2.17
2019-05-07T09:14:42.614Z,2.10
2019-05-07T09:17:12.535Z,2.27
2019-05-07T09:19:50.584Z,2.30
2019-05-07T09:22:12.682Z,2.43
2019-05-07T09:24:42.428Z,2.40
2019-05-07T09:27:25.047Z,2.30
2019-05-07T09:30:04.106Z,2.27
2019-05-07T09:32:43.463Z,2.10
2019-05-07T09:35:13.526Z,2.17
2019-05-07T09:37:42.116Z,2.20
2019-05-07T09:40:12.541Z,3.20
2019-05-07T09:42:42.192Z,3.40
2019-05-07T09:45:12.116Z,3.47
2019-05-07T09:47:41.815Z,3.37
2019-05-07T09:50:11.933Z,4.10
2019-05-07T09:52:42.522Z,2.93
2019-05-07T09:55:16.580Z,2.93
2019-05-07T09:57:42.504Z,2.90
2019-05-07T10:00:12.305Z,2.80
2019-05-07T10:02:42.486Z,3.07
2019-05-07T10:05:11.180Z,2.73
2019-05-07T10:07:39.596Z,2.23
2019-05-07T10:10:08.042Z,2.50
2019-05-07T10:12:42.056Z,2.97
2019-05-07T10:15:12.346Z,2.57
2019-05-07T10:17:42.470Z,2.33
2019-05-07T10:20:21.088Z,2.37
2019-05-07T10:22:42.808Z,2.43
2019-05-07T10:25:12.155Z,2.70
2019-05-07T10:27:41.844Z,2.90
2019-05-07T10:30:12.678Z,2.87
2019-05-07T10:32:42.137Z,3.03
2019-05-07T10:35:12.815Z,2.33
2019-05-07T10:37:42.240Z,1.97
2019-05-07T10:40:12.260Z,2.83
2019-05-07T10:42:42.821Z,2.23
2019-05-07T10:45:15.601Z,2.53
2019-05-07T10:47:45.712Z,2.43
2019-05-07T10:50:34.932Z,2.93
2019-05-07T10:52:52.785Z,3.17
2019-05-07T10:55:22.299Z,3.20
2019-05-07T10:57:52.736Z,2.57
2019-05-07T11:00:22.881Z,3.10
2019-05-07T11:02:51.859Z,2.10
2019-05-07T11:05:21.944Z,3.60
2019-05-07T11:07:50.449Z,2.67
2019-05-07T11:10:18.881Z,2.27
2019-05-07T11:12:47.301Z,2.20
2019-05-07T11:15:15.747Z,2.57
2019-05-07T11:17:55.083Z,2.23
2019-05-07T11:20:23.523Z,2.00
2019-05-07T11:22:52.319Z,1.63
2019-05-07T11:25:22.606Z,1.60
2019-05-07T11:27:52.380Z,1.90
2019-05-07T11:30:22.793Z,1.73
2019-05-07T11:32:52.281Z,1.50
2019-05-07T11:35:22.977Z,1.60
2019-05-07T11:37:52.048Z,2.50
2019-05-07T11:40:22.882Z,2.20
2019-05-07T11:42:56.077Z,2.33
2019-05-07T11:45:26.134Z,2.20
2019-05-07T11:47:54.546Z,1.97
2019-05-07T11:50:24.642Z,1.60
2019-05-07T11:53:00.639Z,1.50
2019-05-07T11:55:29.134Z,1.40
2019-05-07T11:57:57.629Z,2.30
2019-05-07T12:00:32.166Z,2.33
2019-05-07T12:03:02.145Z,1.83
2019-05-07T12:05:30.554Z,1.77
2019-05-07T12:07:58.969Z,1.70
2019-05-07T12:10:27.398Z,1.37
2019-05-07T12:12:55.866Z,1.40
2019-05-07T12:15:24.286Z,1.53
2019-05-07T12:17:52.719Z,1.20
2019-05-07T12:20:21.824Z,1.63
2019-05-07T12:22:52.194Z,1.60
2019-05-07T12:25:20.954Z,1.50
2019-05-07T12:27:50.842Z,1.60
2019-05-07T12:30:37.023Z,1.20
2019-05-07T12:33:12.215Z,1.03
2019-05-07T12:35:42.064Z,1.20
2019-05-07T12:38:12.658Z,1.10
2019-05-07T12:40:42.784Z,1.20
2019-05-07T12:43:11.192Z,1.00
2019-05-07T12:45:41.982Z,0.87
2019-05-07T12:48:11.496Z,1.10
2019-05-07T12:50:39.833Z,1.10
2019-05-07T12:53:09.888Z,1.37
2019-05-07T12:55:43.143Z,1.50
2019-05-07T12:58:12.657Z,1.23
2019-05-07T13:01:00.893Z,1.17
2019-05-07T13:03:36.823Z,1.10
2019-05-07T13:06:05.313Z,1.30
2019-05-07T13:08:33.748Z,1.20
2019-05-07T13:11:03.127Z,1.00
2019-05-07T13:13:32.140Z,1.27
2019-05-07T13:16:02.671Z,1.10
2019-05-07T13:18:31.342Z,1.60
2019-05-07T13:21:02.207Z,1.50
2019-05-07T13:23:31.800Z,1.47
2019-05-07T13:26:02.364Z,1.87
2019-05-07T13:28:30.527Z,2.00
2019-05-07T13:30:58.953Z,1.60
2019-05-07T13:33:28.318Z,1.30
2019-05-07T13:35:56.849Z,1.57
2019-05-07T13:38:32.146Z,1.00
2019-05-07T13:41:04.621Z,1.10
2019-05-07T13:43:40.983Z,1.10
2019-05-07T13:46:12.117Z,1.10
2019-05-07T13:48:45.412Z,0.93
2019-05-07T13:51:12.577Z,1.60
2019-05-07T13:53:42.771Z,0.80
2019-05-07T13:56:12.808Z,1.20
2019-05-07T13:58:42.836Z,0.80
2019-05-07T14:01:23.002Z,0.80
2019-05-07T14:03:51.549Z,1.20
2019-05-07T14:06:38.217Z,1.20
2019-05-07T14:09:23.840Z,1.00
2019-05-07T14:11:52.696Z,1.30
2019-05-07T14:14:22.351Z,1.10
2019-05-07T14:16:53.093Z,1.00
2019-05-07T14:19:22.409Z,1.60
2019-05-07T14:21:52.517Z,1.23
2019-05-07T14:24:22.383Z,1.33
2019-05-07T14:26:52.753Z,1.33
2019-05-07T14:29:24.412Z,1.10
2019-05-07T14:31:52.890Z,1.07
2019-05-07T14:34:31.977Z,0.87
2019-05-07T14:37:04.731Z,0.90
2019-05-07T14:39:33.335Z,0.80
2019-05-07T14:42:03.441Z,0.90
2019-05-07T14:44:48.164Z,1.10
2019-05-07T14:47:18.023Z,0.97
2019-05-07T14:49:46.878Z,1.10
2019-05-07T14:52:28.139Z,0.80
2019-05-07T14:54:45.408Z,0.93
2019-05-07T14:57:13.813Z,0.80
2019-05-07T14:59:42.796Z,0.77
2019-05-07T15:02:12.045Z,0.77
2019-05-07T15:04:41.938Z,1.07
2019-05-07T15:07:11.965Z,0.70
2019-05-07T15:09:42.450Z,0.50
2019-05-07T15:12:12.370Z,1.10
2019-05-07T15:14:42.189Z,0.90
2019-05-07T15:17:12.856Z,0.70
2019-05-07T15:19:42.754Z,0.67
2019-05-07T15:22:25.257Z,0.60
2019-05-07T15:24:53.669Z,0.50
2019-05-07T15:27:22.935Z,0.60
2019-05-07T15:29:52.616Z,0.63
2019-05-07T15:32:21.804Z,0.70
2019-05-07T15:34:52.520Z,0.63
2019-05-07T15:37:20.509Z,0.80
2019-05-07T15:39:48.932Z,0.50
2019-05-07T15:42:17.362Z,0.50
2019-05-07T15:44:46.077Z,0.40
2019-05-07T15:47:16.158Z,0.63
2019-05-07T15:49:44.971Z,0.50
2019-05-07T15:52:17.902Z,0.40
2019-05-07T15:54:46.317Z,0.50
2019-05-07T15:57:19.113Z,0.50
2019-05-07T15:59:49.191Z,0.90
2019-05-07T16:02:19.256Z,0.57
2019-05-07T16:04:47.661Z,0.40
2019-05-07T16:07:16.418Z,0.40
2019-05-07T16:09:44.870Z,0.53
2019-05-07T16:12:15.918Z,0.50
2019-05-07T16:14:44.385Z,0.50
2019-05-07T16:17:14.656Z,0.40
2019-05-07T16:19:43.522Z,0.73
2019-05-07T16:22:13.609Z,0.30
2019-05-07T16:24:42.041Z,0.30
2019-05-07T16:27:12.186Z,0.40
2019-05-07T16:29:42.081Z,0.60
2019-05-07T16:32:10.668Z,0.40
2019-05-07T16:34:39.092Z,0.40
2019-05-07T16:37:07.748Z,0.50
2019-05-07T16:39:36.385Z,0.50
2019-05-07T16:42:04.800Z,0.53
2019-05-07T16:44:33.257Z,0.50
2019-05-07T16:47:02.789Z,0.53
2019-05-07T16:49:31.906Z,0.50
2019-05-07T16:52:01.812Z,0.70
2019-05-07T16:54:30.453Z,0.63
2019-05-07T16:57:15.894Z,0.47
2019-05-07T16:59:44.459Z,0.70
2019-05-07T17:02:17.454Z,0.63
2019-05-07T17:05:03.799Z,0.60
2019-05-07T17:07:32.306Z,0.60
2019-05-07T17:10:02.575Z,0.47
2019-05-07T17:12:32.435Z,0.63
2019-05-07T17:15:02.953Z,0.50
2019-05-07T17:17:32.086Z,0.40
2019-05-07T17:20:02.756Z,0.40
2019-05-07T17:22:32.285Z,0.50
2019-05-07T17:25:03.115Z,0.57
2019-05-07T17:27:32.106Z,0.70
2019-05-07T17:30:02.786Z,0.70
2019-05-07T17:32:32.095Z,1.00
2019-05-07T17:35:02.599Z,0.70
2019-05-07T17:37:30.833Z,1.27
2019-05-07T17:39:59.254Z,0.90
2019-05-07T17:42:27.718Z,1.00
2019-05-07T17:44:56.144Z,1.03
2019-05-07T17:47:24.575Z,1.00
2019-05-07T17:49:53.077Z,0.87
2019-05-07T17:52:22.729Z,0.90
2019-05-07T17:54:52.779Z,0.97
2019-05-07T17:57:22.808Z,0.63
2019-05-07T17:59:52.543Z,0.80
2019-05-07T18:02:22.687Z,0.80
2019-05-07T18:04:54.347Z,1.20
2019-05-07T18:07:21.241Z,1.40
2019-05-07T18:09:49.655Z,2.20
2019-05-07T18:12:18.140Z,2.87
2019-05-07T18:14:46.564Z,2.37
2019-05-07T18:17:28.743Z,1.70
2019-05-07T18:19:57.161Z,1.00
2019-05-07T18:22:25.648Z,1.37
2019-05-07T18:24:54.143Z,1.20
2019-05-07T18:27:23.744Z,1.10
2019-05-07T18:29:52.326Z,1.20
2019-05-07T18:32:21.923Z,1.27
2019-05-07T18:34:51.987Z,1.37
2019-05-07T18:37:22.729Z,0.90
2019-05-07T18:39:52.195Z,1.60
2019-05-07T18:42:22.139Z,1.47
2019-05-07T18:44:52.464Z,1.10
2019-05-07T18:47:22.365Z,0.90
2019-05-07T18:49:51.852Z,1.37
2019-05-07T18:52:22.805Z,0.90
2019-05-07T18:54:52.060Z,0.93
2019-05-07T18:57:22.238Z,0.80
2019-05-07T18:59:52.571Z,1.10
2019-05-07T19:02:22.551Z,1.50
2019-05-07T19:04:51.887Z,1.50
2019-05-07T19:07:22.803Z,1.30
2019-05-07T19:09:51.696Z,1.20
2019-05-07T19:12:22.325Z,1.20
2019-05-07T19:14:51.696Z,1.50
2019-05-07T19:17:21.882Z,1.57
2019-05-07T19:19:52.410Z,1.60
2019-05-07T19:22:22.093Z,1.40
2019-05-07T19:24:52.671Z,1.00
2019-05-07T19:27:22.025Z,1.50
2019-05-07T19:29:50.550Z,1.30
2019-05-07T19:32:19.257Z,1.50
2019-05-07T19:34:47.687Z,1.30
2019-05-07T19:37:16.096Z,1.20
2019-05-07T19:39:44.559Z,1.00
2019-05-07T19:42:13.260Z,1.00
2019-05-07T19:44:42.312Z,1.65
2019-05-07T19:47:12.675Z,0.90
2019-05-07T19:49:41.906Z,1.30
2019-05-07T19:52:12.432Z,1.07
2019-05-07T19:54:43.001Z,0.98
2019-05-07T19:57:13.454Z,1.25
2019-05-07T19:59:42.864Z,1.00
2019-05-07T20:02:13.446Z,1.10
2019-05-07T20:04:42.739Z,1.75
2019-05-07T20:07:12.201Z,1.42
2019-05-07T20:09:42.863Z,1.60
2019-05-07T20:12:11.552Z,2.02
2019-05-07T20:14:42.072Z,1.75
2019-05-07T20:17:12.309Z,1.72
2019-05-07T20:19:41.756Z,1.50
2019-05-07T20:22:12.769Z,1.32
2019-05-07T20:24:41.867Z,1.47
2019-05-07T20:27:12.512Z,1.80
2019-05-07T20:29:42.773Z,1.65
2019-05-07T20:32:11.294Z,1.62
2019-05-07T20:34:42.181Z,1.98
2019-05-07T20:37:12.731Z,2.15
2019-05-07T20:39:42.599Z,1.60
2019-05-07T20:42:12.410Z,1.42
2019-05-07T20:44:42.625Z,1.40
2019-05-07T20:47:12.666Z,1.62
2019-05-07T20:49:42.757Z,1.40
2019-05-07T20:52:11.542Z,1.47
2019-05-07T20:54:44.836Z,1.37
2019-05-07T20:57:22.484Z,1.75
2019-05-07T20:59:51.430Z,1.17
2019-05-07T21:02:22.426Z,1.00
2019-05-07T21:04:51.905Z,1.30
2019-05-07T21:07:22.223Z,1.02
2019-05-07T21:09:52.956Z,1.10
2019-05-07T21:12:22.500Z,1.22
2019-05-07T21:14:52.497Z,1.10
2019-05-07T21:17:22.716Z,1.25
2019-05-07T21:19:51.544Z,1.40
2019-05-07T21:22:22.443Z,1.37
2019-05-07T21:24:52.982Z,1.25
2019-05-07T21:27:20.939Z,2.22
2019-05-07T21:29:49.648Z,2.37
2019-05-07T21:32:18.342Z,3.47
2019-05-07T21:34:47.024Z,3.12
2019-05-07T21:37:15.750Z,3.35
2019-05-07T21:39:44.454Z,3.12
2019-05-07T21:42:14.288Z,2.92
2019-05-07T21:44:43.192Z,2.50
2019-05-07T21:47:12.597Z,2.20
2019-05-07T21:49:42.999Z,2.35
2019-05-07T21:52:12.631Z,1.82
2019-05-07T21:54:46.027Z,2.10
2019-05-07T21:57:22.321Z,2.30
2019-05-07T21:59:54.954Z,2.15
2019-05-07T22:02:24.619Z,2.40
2019-05-07T22:04:53.379Z,2.12
2019-05-07T22:07:22.751Z,1.95
2019-05-07T22:09:52.354Z,2.15
2019-05-07T22:12:22.620Z,2.72
2019-05-07T22:14:51.414Z,2.15
2019-05-07T22:17:21.939Z,2.20
2019-05-07T22:19:52.474Z,2.20
2019-05-07T22:22:24.019Z,2.52
2019-05-07T22:24:53.067Z,2.40
2019-05-07T22:27:22.138Z,2.30
2019-05-07T22:29:52.701Z,1.90
2019-05-07T22:32:28.382Z,2.00
2019-05-07T22:35:15.195Z,2.05
2019-05-07T22:37:43.958Z,1.82
2019-05-07T22:40:12.644Z,1.50
2019-05-07T22:42:41.323Z,1.80
2019-05-07T22:45:12.135Z,1.98
2019-05-07T22:47:42.018Z,1.60
2019-05-07T22:50:12.010Z,1.62
2019-05-07T22:52:40.939Z,1.85
2019-05-07T22:55:09.694Z,1.80
2019-05-07T22:57:42.053Z,1.57
2019-05-07T23:00:12.803Z,1.72
2019-05-07T23:02:42.775Z,1.75
2019-05-07T23:05:12.199Z,2.00
2019-05-07T23:07:41.769Z,1.52
2019-05-07T23:10:11.898Z,1.60
2019-05-07T23:12:40.636Z,1.60
2019-05-07T23:15:09.451Z,1.40
2019-05-07T23:17:38.135Z,1.50
2019-05-07T23:20:06.822Z,1.30
2019-05-07T23:22:35.950Z,1.80
2019-05-07T23:25:06.574Z,1.72
2019-05-07T23:27:35.263Z,2.62
2019-05-07T23:30:04.427Z,1.75
2019-05-07T23:32:33.107Z,1.80
2019-05-07T23:35:02.010Z,1.55
2019-05-07T23:37:32.949Z,1.60
2019-05-07T23:40:12.218Z,1.60
2019-05-07T23:42:42.645Z,1.52
2019-05-07T23:45:12.555Z,1.75
2019-05-07T23:47:44.477Z,1.98
2019-05-07T23:50:13.303Z,2.20
2019-05-07T23:52:43.972Z,1.80
2019-05-07T23:55:12.323Z,2.50
2019-05-07T23:57:42.976Z,1.70
